Terminal Aerodrome Forecast
Issued by NWS

Home | Current Version | Previous Version | Text Only | Print | Product List | Glossary On
Versions: 1 2 3 4 5 6 7 8 9 10 11 12 13 14 15 16 17 18 19 20 21 22 23
000
FTUS44 KLZK 211100 CCA
TAFHOT
TAF COR
KHOT 211151Z 2112/2212 VRB03KT P6SM SCT050
      TEMPO 2112/2114 2SM BR BKN001
     FM211500 33010KT P6SM VCTS SCT035CB BKN100
     FM220000 01005KT P6SM SKC=

USA.gov is the U.S. government's official web portal to all federal, state and local government web resources and services.